sensor_id;sensor_type;location;lat;lon;timestamp;P1;durP1;ratioP1;P2;durP2;ratioP2
54743;SDS011;40639;53.170;6.728;2023-02-28T00:00:35;5.88;;;2.47;;
54743;SDS011;40639;53.170;6.728;2023-02-28T00:03:02;7.50;;;2.60;;
54743;SDS011;40639;53.170;6.728;2023-02-28T00:05:28;6.95;;;2.28;;
54743;SDS011;40639;53.170;6.728;2023-02-28T00:07:55;6.65;;;2.70;;
54743;SDS011;40639;53.170;6.728;2023-02-28T00:10:22;5.50;;;2.10;;
54743;SDS011;40639;53.170;6.728;2023-02-28T00:12:49;6.38;;;2.65;;
54743;SDS011;40639;53.170;6.728;2023-02-28T00:15:16;5.97;;;2.50;;
54743;SDS011;40639;53.170;6.728;2023-02-28T00:17:42;4.97;;;2.70;;
54743;SDS011;40639;53.170;6.728;2023-02-28T00:20:09;5.43;;;2.50;;
54743;SDS011;40639;53.170;6.728;2023-02-28T00:22:37;6.57;;;2.13;;
54743;SDS011;40639;53.170;6.728;2023-02-28T00:25:04;9.40;;;2.90;;
54743;SDS011;40639;53.170;6.728;2023-02-28T00:27:32;7.55;;;3.00;;
54743;SDS011;40639;53.170;6.728;2023-02-28T00:29:58;6.72;;;3.20;;
54743;SDS011;40639;53.170;6.728;2023-02-28T00:32:24;13.70;;;3.25;;
54743;SDS011;40639;53.170;6.728;2023-02-28T00:34:50;7.65;;;2.63;;
54743;SDS011;40639;53.170;6.728;2023-02-28T00:37:16;6.70;;;2.75;;
54743;SDS011;40639;53.170;6.728;2023-02-28T00:39:43;7.75;;;3.22;;
54743;SDS011;40639;53.170;6.728;2023-02-28T00:42:09;7.50;;;2.30;;
54743;SDS011;40639;53.170;6.728;2023-02-28T00:44:35;5.38;;;2.42;;
54743;SDS011;40639;53.170;6.728;2023-02-28T00:47:01;6.60;;;2.78;;
54743;SDS011;40639;53.170;6.728;2023-02-28T00:49:27;6.20;;;2.38;;
54743;SDS011;40639;53.170;6.728;2023-02-28T00:51:54;5.38;;;2.50;;
54743;SDS011;40639;53.170;6.728;2023-02-28T00:54:20;6.30;;;2.58;;
54743;SDS011;40639;53.170;6.728;2023-02-28T00:56:47;6.35;;;2.55;;
54743;SDS011;40639;53.170;6.728;2023-02-28T00:59:14;9.15;;;2.90;;
54743;SDS011;40639;53.170;6.728;2023-02-28T01:01:41;5.60;;;2.30;;
54743;SDS011;40639;53.170;6.728;2023-02-28T01:04:07;4.00;;;2.30;;
54743;SDS011;40639;53.170;6.728;2023-02-28T01:06:33;8.18;;;2.70;;
54743;SDS011;40639;53.170;6.728;2023-02-28T01:09:00;5.45;;;2.83;;
54743;SDS011;40639;53.170;6.728;2023-02-28T01:11:27;5.95;;;2.65;;
54743;SDS011;40639;53.170;6.728;2023-02-28T01:13:53;4.95;;;2.53;;
54743;SDS011;40639;53.170;6.728;2023-02-28T01:16:19;7.47;;;3.30;;
54743;SDS011;40639;53.170;6.728;2023-02-28T01:18:45;7.15;;;3.30;;
54743;SDS011;40639;53.170;6.728;2023-02-28T01:21:12;4.78;;;2.78;;
54743;SDS011;40639;53.170;6.728;2023-02-28T01:23:39;7.65;;;3.05;;
54743;SDS011;40639;53.170;6.728;2023-02-28T01:26:06;8.23;;;3.58;;
54743;SDS011;40639;53.170;6.728;2023-02-28T01:28:32;7.35;;;3.08;;
54743;SDS011;40639;53.170;6.728;2023-02-28T01:30:58;7.50;;;3.38;;
54743;SDS011;40639;53.170;6.728;2023-02-28T01:33:25;5.72;;;3.20;;
54743;SDS011;40639;53.170;6.728;2023-02-28T01:35:57;6.05;;;2.92;;
54743;SDS011;40639;53.170;6.728;2023-02-28T01:38:23;5.80;;;3.05;;
54743;SDS011;40639;53.170;6.728;2023-02-28T01:40:49;9.90;;;3.30;;
54743;SDS011;40639;53.170;6.728;2023-02-28T01:43:19;10.02;;;4.05;;
54743;SDS011;40639;53.170;6.728;2023-02-28T01:45:45;8.20;;;4.00;;
54743;SDS011;40639;53.170;6.728;2023-02-28T01:48:12;8.90;;;4.15;;
54743;SDS011;40639;53.170;6.728;2023-02-28T01:50:39;8.70;;;3.75;;
54743;SDS011;40639;53.170;6.728;2023-02-28T01:53:07;7.30;;;3.47;;
54743;SDS011;40639;53.170;6.728;2023-02-28T01:55:34;7.90;;;4.00;;
54743;SDS011;40639;53.170;6.728;2023-02-28T01:58:02;10.25;;;4.28;;
54743;SDS011;40639;53.170;6.728;2023-02-28T02:00:30;9.02;;;3.95;;
54743;SDS011;40639;53.170;6.728;2023-02-28T02:02:57;7.38;;;4.10;;
54743;SDS011;40639;53.170;6.728;2023-02-28T02:05:26;9.45;;;3.80;;
54743;SDS011;40639;53.170;6.728;2023-02-28T02:10:50;8.65;;;4.57;;
54743;SDS011;40639;53.170;6.728;2023-02-28T02:13:21;10.15;;;4.80;;
54743;SDS011;40639;53.170;6.728;2023-02-28T02:25:59;10.75;;;4.57;;
54743;SDS011;40639;53.170;6.728;2023-02-28T02:38:48;8.50;;;4.25;;
54743;SDS011;40639;53.170;6.728;2023-02-28T02:41:23;10.95;;;4.93;;
54743;SDS011;40639;53.170;6.728;2023-02-28T02:44:02;8.45;;;4.32;;
54743;SDS011;40639;53.170;6.728;2023-02-28T02:46:30;9.98;;;4.90;;
54743;SDS011;40639;53.170;6.728;2023-02-28T02:48:59;10.63;;;4.90;;
54743;SDS011;40639;53.170;6.728;2023-02-28T02:51:26;7.53;;;4.18;;
54743;SDS011;40639;53.170;6.728;2023-02-28T02:53:57;13.27;;;5.55;;
54743;SDS011;40639;53.170;6.728;2023-02-28T02:56:27;10.13;;;5.43;;
54743;SDS011;40639;53.170;6.728;2023-02-28T02:58:55;8.88;;;4.97;;
54743;SDS011;40639;53.170;6.728;2023-02-28T03:01:23;10.68;;;5.03;;
54743;SDS011;40639;53.170;6.728;2023-02-28T03:04:00;11.15;;;5.05;;
54743;SDS011;40639;53.170;6.728;2023-02-28T03:06:27;11.27;;;5.50;;
54743;SDS011;40639;53.170;6.728;2023-02-28T03:08:54;8.93;;;4.78;;
54743;SDS011;40639;53.170;6.728;2023-02-28T03:11:20;7.88;;;4.65;;
54743;SDS011;40639;53.170;6.728;2023-02-28T03:18:55;9.02;;;5.22;;
54743;SDS011;40639;53.170;6.728;2023-02-28T03:23:59;10.07;;;5.60;;
54743;SDS011;40639;53.170;6.728;2023-02-28T03:26:29;10.05;;;5.70;;
54743;SDS011;40639;53.170;6.728;2023-02-28T03:29:00;10.63;;;5.25;;
54743;SDS011;40639;53.170;6.728;2023-02-28T03:34:05;10.75;;;5.35;;
54743;SDS011;40639;53.170;6.728;2023-02-28T03:36:34;10.68;;;5.70;;
54743;SDS011;40639;53.170;6.728;2023-02-28T03:39:07;11.95;;;6.00;;
54743;SDS011;40639;53.170;6.728;2023-02-28T03:41:46;10.45;;;5.43;;
54743;SDS011;40639;53.170;6.728;2023-02-28T03:44:35;14.20;;;6.95;;
54743;SDS011;40639;53.170;6.728;2023-02-28T03:47:04;11.65;;;6.07;;
54743;SDS011;40639;53.170;6.728;2023-02-28T03:49:32;13.40;;;6.47;;
54743;SDS011;40639;53.170;6.728;2023-02-28T03:52:00;10.93;;;6.70;;
54743;SDS011;40639;53.170;6.728;2023-02-28T03:54:29;9.43;;;6.13;;
54743;SDS011;40639;53.170;6.728;2023-02-28T03:59:34;10.63;;;6.03;;
54743;SDS011;40639;53.170;6.728;2023-02-28T04:02:03;9.50;;;5.00;;
54743;SDS011;40639;53.170;6.728;2023-02-28T04:04:29;8.93;;;5.25;;
54743;SDS011;40639;53.170;6.728;2023-02-28T04:07:29;10.30;;;5.40;;
54743;SDS011;40639;53.170;6.728;2023-02-28T04:09:48;10.23;;;5.13;;
54743;SDS011;40639;53.170;6.728;2023-02-28T04:12:14;9.32;;;5.53;;
54743;SDS011;40639;53.170;6.728;2023-02-28T04:14:41;9.65;;;4.88;;
54743;SDS011;40639;53.170;6.728;2023-02-28T04:17:07;9.93;;;5.55;;
54743;SDS011;40639;53.170;6.728;2023-02-28T04:19:33;10.88;;;5.40;;
54743;SDS011;40639;53.170;6.728;2023-02-28T04:21:59;9.95;;;4.97;;
54743;SDS011;40639;53.170;6.728;2023-02-28T04:24:26;9.65;;;4.82;;
54743;SDS011;40639;53.170;6.728;2023-02-28T04:26:55;9.90;;;5.43;;
54743;SDS011;40639;53.170;6.728;2023-02-28T04:29:22;11.48;;;5.68;;
54743;SDS011;40639;53.170;6.728;2023-02-28T04:31:48;10.10;;;5.13;;
54743;SDS011;40639;53.170;6.728;2023-02-28T04:34:15;10.57;;;5.18;;
54743;SDS011;40639;53.170;6.728;2023-02-28T04:36:41;11.57;;;5.20;;
54743;SDS011;40639;53.170;6.728;2023-02-28T04:39:08;9.20;;;4.97;;
54743;SDS011;40639;53.170;6.728;2023-02-28T04:41:34;8.88;;;5.05;;
54743;SDS011;40639;53.170;6.728;2023-02-28T04:44:00;9.77;;;5.20;;
54743;SDS011;40639;53.170;6.728;2023-02-28T04:46:27;11.40;;;5.28;;
54743;SDS011;40639;53.170;6.728;2023-02-28T04:48:53;8.75;;;5.10;;
54743;SDS011;40639;53.170;6.728;2023-02-28T04:51:19;10.27;;;5.18;;
54743;SDS011;40639;53.170;6.728;2023-02-28T04:53:46;10.02;;;4.88;;
54743;SDS011;40639;53.170;6.728;2023-02-28T04:56:13;8.88;;;5.03;;
54743;SDS011;40639;53.170;6.728;2023-02-28T04:58:39;9.75;;;5.05;;
54743;SDS011;40639;53.170;6.728;2023-02-28T05:01:06;10.55;;;5.05;;
54743;SDS011;40639;53.170;6.728;2023-02-28T05:03:40;12.20;;;5.40;;
54743;SDS011;40639;53.170;6.728;2023-02-28T05:06:07;10.70;;;5.47;;
54743;SDS011;40639;53.170;6.728;2023-02-28T05:08:33;9.93;;;5.38;;
54743;SDS011;40639;53.170;6.728;2023-02-28T05:11:00;8.13;;;4.63;;
54743;SDS011;40639;53.170;6.728;2023-02-28T05:13:27;11.68;;;4.90;;
54743;SDS011;40639;53.170;6.728;2023-02-28T05:15:53;8.90;;;5.13;;
54743;SDS011;40639;53.170;6.728;2023-02-28T05:18:19;8.95;;;4.60;;
54743;SDS011;40639;53.170;6.728;2023-02-28T05:20:45;11.10;;;4.60;;
54743;SDS011;40639;53.170;6.728;2023-02-28T05:23:12;10.05;;;5.22;;
54743;SDS011;40639;53.170;6.728;2023-02-28T05:25:39;8.98;;;5.13;;
54743;SDS011;40639;53.170;6.728;2023-02-28T05:28:05;10.20;;;4.95;;
54743;SDS011;40639;53.170;6.728;2023-02-28T05:30:31;10.80;;;5.70;;
54743;SDS011;40639;53.170;6.728;2023-02-28T05:32:58;11.55;;;5.53;;
54743;SDS011;40639;53.170;6.728;2023-02-28T05:35:24;8.95;;;5.53;;
54743;SDS011;40639;53.170;6.728;2023-02-28T05:37:51;13.15;;;5.80;;
54743;SDS011;40639;53.170;6.728;2023-02-28T05:40:17;11.30;;;6.30;;
54743;SDS011;40639;53.170;6.728;2023-02-28T05:42:45;10.27;;;6.13;;
54743;SDS011;40639;53.170;6.728;2023-02-28T05:45:11;11.95;;;6.53;;
54743;SDS011;40639;53.170;6.728;2023-02-28T05:47:38;11.43;;;6.05;;
54743;SDS011;40639;53.170;6.728;2023-02-28T05:50:04;14.18;;;6.05;;
54743;SDS011;40639;53.170;6.728;2023-02-28T05:52:31;11.20;;;6.00;;
54743;SDS011;40639;53.170;6.728;2023-02-28T05:54:57;11.27;;;6.53;;
54743;SDS011;40639;53.170;6.728;2023-02-28T05:57:23;11.23;;;6.13;;
54743;SDS011;40639;53.170;6.728;2023-02-28T05:59:50;11.27;;;6.28;;
54743;SDS011;40639;53.170;6.728;2023-02-28T06:02:17;11.88;;;6.57;;
54743;SDS011;40639;53.170;6.728;2023-02-28T06:04:43;12.45;;;6.70;;
54743;SDS011;40639;53.170;6.728;2023-02-28T06:07:10;12.30;;;6.03;;
54743;SDS011;40639;53.170;6.728;2023-02-28T06:09:36;13.70;;;6.45;;
54743;SDS011;40639;53.170;6.728;2023-02-28T06:12:03;11.63;;;6.78;;
54743;SDS011;40639;53.170;6.728;2023-02-28T06:14:31;10.43;;;6.28;;
54743;SDS011;40639;53.170;6.728;2023-02-28T06:16:57;11.73;;;6.07;;
54743;SDS011;40639;53.170;6.728;2023-02-28T06:19:24;11.05;;;6.10;;
54743;SDS011;40639;53.170;6.728;2023-02-28T06:21:53;11.02;;;6.28;;
54743;SDS011;40639;53.170;6.728;2023-02-28T06:24:21;11.98;;;6.25;;
54743;SDS011;40639;53.170;6.728;2023-02-28T06:26:47;11.73;;;6.15;;
54743;SDS011;40639;53.170;6.728;2023-02-28T06:29:13;13.45;;;6.20;;
54743;SDS011;40639;53.170;6.728;2023-02-28T06:31:43;12.15;;;6.25;;
54743;SDS011;40639;53.170;6.728;2023-02-28T06:34:10;12.65;;;6.50;;
54743;SDS011;40639;53.170;6.728;2023-02-28T06:36:37;13.48;;;7.03;;
54743;SDS011;40639;53.170;6.728;2023-02-28T06:39:03;13.10;;;6.22;;
54743;SDS011;40639;53.170;6.728;2023-02-28T06:41:29;12.68;;;7.28;;
54743;SDS011;40639;53.170;6.728;2023-02-28T06:43:56;12.07;;;6.75;;
54743;SDS011;40639;53.170;6.728;2023-02-28T06:46:22;11.88;;;6.85;;
54743;SDS011;40639;53.170;6.728;2023-02-28T06:48:49;10.50;;;6.45;;
54743;SDS011;40639;53.170;6.728;2023-02-28T06:51:16;12.18;;;7.03;;
54743;SDS011;40639;53.170;6.728;2023-02-28T06:53:43;11.35;;;6.32;;
54743;SDS011;40639;53.170;6.728;2023-02-28T06:56:10;17.63;;;7.47;;
54743;SDS011;40639;53.170;6.728;2023-02-28T06:58:37;12.50;;;6.85;;
54743;SDS011;40639;53.170;6.728;2023-02-28T07:01:04;12.75;;;6.57;;
54743;SDS011;40639;53.170;6.728;2023-02-28T07:03:31;10.57;;;6.53;;
54743;SDS011;40639;53.170;6.728;2023-02-28T07:05:57;13.02;;;7.10;;
54743;SDS011;40639;53.170;6.728;2023-02-28T07:08:24;12.30;;;6.65;;
54743;SDS011;40639;53.170;6.728;2023-02-28T07:10:55;13.57;;;7.03;;
54743;SDS011;40639;53.170;6.728;2023-02-28T07:13:21;13.35;;;7.30;;
54743;SDS011;40639;53.170;6.728;2023-02-28T07:18:20;13.80;;;7.18;;
54743;SDS011;40639;53.170;6.728;2023-02-28T07:20:46;12.77;;;6.68;;
54743;SDS011;40639;53.170;6.728;2023-02-28T07:23:12;13.70;;;7.28;;
54743;SDS011;40639;53.170;6.728;2023-02-28T07:25:38;14.88;;;7.20;;
54743;SDS011;40639;53.170;6.728;2023-02-28T07:28:04;14.43;;;7.30;;
54743;SDS011;40639;53.170;6.728;2023-02-28T07:30:31;15.30;;;7.60;;
54743;SDS011;40639;53.170;6.728;2023-02-28T07:32:57;14.90;;;6.95;;
54743;SDS011;40639;53.170;6.728;2023-02-28T07:35:23;12.27;;;7.32;;
54743;SDS011;40639;53.170;6.728;2023-02-28T07:37:49;11.55;;;7.13;;
54743;SDS011;40639;53.170;6.728;2023-02-28T07:40:16;14.70;;;7.95;;
54743;SDS011;40639;53.170;6.728;2023-02-28T07:42:43;12.90;;;7.45;;
54743;SDS011;40639;53.170;6.728;2023-02-28T07:45:09;13.02;;;6.88;;
54743;SDS011;40639;53.170;6.728;2023-02-28T07:47:40;15.43;;;7.50;;
54743;SDS011;40639;53.170;6.728;2023-02-28T07:50:07;14.10;;;7.95;;
54743;SDS011;40639;53.170;6.728;2023-02-28T07:52:35;14.88;;;7.63;;
54743;SDS011;40639;53.170;6.728;2023-02-28T07:55:02;13.05;;;7.10;;
54743;SDS011;40639;53.170;6.728;2023-02-28T07:57:29;12.77;;;7.38;;
54743;SDS011;40639;53.170;6.728;2023-02-28T07:59:55;14.07;;;7.00;;
54743;SDS011;40639;53.170;6.728;2023-02-28T08:02:22;11.60;;;7.05;;
54743;SDS011;40639;53.170;6.728;2023-02-28T08:04:48;13.00;;;6.97;;
54743;SDS011;40639;53.170;6.728;2023-02-28T08:07:14;12.10;;;6.78;;
54743;SDS011;40639;53.170;6.728;2023-02-28T08:09:41;13.82;;;7.13;;
54743;SDS011;40639;53.170;6.728;2023-02-28T08:12:07;12.63;;;6.97;;
54743;SDS011;40639;53.170;6.728;2023-02-28T08:14:33;13.80;;;7.43;;
54743;SDS011;40639;53.170;6.728;2023-02-28T08:17:00;13.45;;;7.07;;
54743;SDS011;40639;53.170;6.728;2023-02-28T08:19:26;12.10;;;6.95;;
54743;SDS011;40639;53.170;6.728;2023-02-28T08:21:53;12.18;;;6.90;;
54743;SDS011;40639;53.170;6.728;2023-02-28T08:24:19;15.32;;;8.35;;
54743;SDS011;40639;53.170;6.728;2023-02-28T08:26:45;14.57;;;7.90;;
54743;SDS011;40639;53.170;6.728;2023-02-28T08:29:12;10.32;;;4.45;;
54743;SDS011;40639;53.170;6.728;2023-02-28T08:31:38;12.93;;;7.50;;
54743;SDS011;40639;53.170;6.728;2023-02-28T08:34:05;19.30;;;7.75;;
54743;SDS011;40639;53.170;6.728;2023-02-28T08:36:31;13.50;;;7.32;;
54743;SDS011;40639;53.170;6.728;2023-02-28T08:38:57;14.13;;;7.38;;
54743;SDS011;40639;53.170;6.728;2023-02-28T08:41:24;11.90;;;7.20;;
54743;SDS011;40639;53.170;6.728;2023-02-28T08:43:51;13.05;;;6.65;;
54743;SDS011;40639;53.170;6.728;2023-02-28T08:46:18;13.75;;;7.22;;
54743;SDS011;40639;53.170;6.728;2023-02-28T08:48:45;11.95;;;6.30;;
54743;SDS011;40639;53.170;6.728;2023-02-28T08:51:12;15.75;;;7.75;;
54743;SDS011;40639;53.170;6.728;2023-02-28T08:53:39;12.90;;;7.40;;
54743;SDS011;40639;53.170;6.728;2023-02-28T08:56:06;13.00;;;7.57;;
54743;SDS011;40639;53.170;6.728;2023-02-28T08:58:33;13.00;;;7.05;;
54743;SDS011;40639;53.170;6.728;2023-02-28T09:00:59;13.43;;;7.70;;
54743;SDS011;40639;53.170;6.728;2023-02-28T09:03:26;14.13;;;8.07;;
54743;SDS011;40639;53.170;6.728;2023-02-28T09:05:56;13.40;;;7.45;;
54743;SDS011;40639;53.170;6.728;2023-02-28T09:08:23;14.13;;;8.18;;
54743;SDS011;40639;53.170;6.728;2023-02-28T09:10:49;12.18;;;7.32;;
54743;SDS011;40639;53.170;6.728;2023-02-28T09:13:16;13.18;;;7.25;;
54743;SDS011;40639;53.170;6.728;2023-02-28T09:15:42;13.35;;;7.70;;
54743;SDS011;40639;53.170;6.728;2023-02-28T09:18:08;14.95;;;7.53;;
54743;SDS011;40639;53.170;6.728;2023-02-28T09:20:37;13.88;;;7.68;;
54743;SDS011;40639;53.170;6.728;2023-02-28T09:23:03;14.00;;;7.85;;
54743;SDS011;40639;53.170;6.728;2023-02-28T09:25:29;12.55;;;7.32;;
54743;SDS011;40639;53.170;6.728;2023-02-28T09:27:56;13.95;;;7.43;;
54743;SDS011;40639;53.170;6.728;2023-02-28T09:30:22;12.65;;;7.53;;
54743;SDS011;40639;53.170;6.728;2023-02-28T09:32:48;15.93;;;7.75;;
54743;SDS011;40639;53.170;6.728;2023-02-28T09:35:20;14.43;;;7.60;;
54743;SDS011;40639;53.170;6.728;2023-02-28T09:37:49;16.13;;;8.07;;
54743;SDS011;40639;53.170;6.728;2023-02-28T09:40:21;14.68;;;7.57;;
54743;SDS011;40639;53.170;6.728;2023-02-28T09:42:49;12.25;;;7.05;;
54743;SDS011;40639;53.170;6.728;2023-02-28T09:45:22;12.85;;;7.20;;
54743;SDS011;40639;53.170;6.728;2023-02-28T09:47:50;11.40;;;7.47;;
54743;SDS011;40639;53.170;6.728;2023-02-28T09:52:48;12.93;;;7.55;;
54743;SDS011;40639;53.170;6.728;2023-02-28T09:57:41;16.05;;;8.20;;
54743;SDS011;40639;53.170;6.728;2023-02-28T10:05:11;13.07;;;7.47;;
54743;SDS011;40639;53.170;6.728;2023-02-28T10:10:15;14.10;;;6.82;;
54743;SDS011;40639;53.170;6.728;2023-02-28T10:12:44;12.00;;;6.38;;
54743;SDS011;40639;53.170;6.728;2023-02-28T10:15:15;11.35;;;6.38;;
54743;SDS011;40639;53.170;6.728;2023-02-28T10:17:43;12.20;;;6.63;;
54743;SDS011;40639;53.170;6.728;2023-02-28T10:20:12;9.13;;;5.65;;
54743;SDS011;40639;53.170;6.728;2023-02-28T10:25:19;9.55;;;5.22;;
54743;SDS011;40639;53.170;6.728;2023-02-28T10:27:45;8.23;;;4.88;;
54743;SDS011;40639;53.170;6.728;2023-02-28T10:30:12;7.20;;;4.78;;
54743;SDS011;40639;53.170;6.728;2023-02-28T10:32:39;8.65;;;4.45;;
54743;SDS011;40639;53.170;6.728;2023-02-28T10:37:38;7.45;;;4.35;;
54743;SDS011;40639;53.170;6.728;2023-02-28T10:40:06;9.50;;;4.07;;
54743;SDS011;40639;53.170;6.728;2023-02-28T10:42:33;4.90;;;3.00;;
54743;SDS011;40639;53.170;6.728;2023-02-28T10:47:48;5.28;;;3.20;;
54743;SDS011;40639;53.170;6.728;2023-02-28T10:52:53;8.25;;;4.25;;
54743;SDS011;40639;53.170;6.728;2023-02-28T10:55:21;6.88;;;3.67;;
54743;SDS011;40639;53.170;6.728;2023-02-28T10:57:49;5.80;;;3.88;;
54743;SDS011;40639;53.170;6.728;2023-02-28T11:00:19;6.45;;;3.70;;
54743;SDS011;40639;53.170;6.728;2023-02-28T11:02:46;7.32;;;4.20;;
54743;SDS011;40639;53.170;6.728;2023-02-28T11:05:27;6.50;;;3.97;;
54743;SDS011;40639;53.170;6.728;2023-02-28T11:07:59;7.80;;;4.75;;
54743;SDS011;40639;53.170;6.728;2023-02-28T11:10:28;9.27;;;4.20;;
54743;SDS011;40639;53.170;6.728;2023-02-28T11:12:57;7.70;;;4.15;;
54743;SDS011;40639;53.170;6.728;2023-02-28T11:15:26;9.15;;;3.47;;
54743;SDS011;40639;53.170;6.728;2023-02-28T11:18:40;7.88;;;4.10;;
54743;SDS011;40639;53.170;6.728;2023-02-28T11:20:39;8.32;;;4.18;;
54743;SDS011;40639;53.170;6.728;2023-02-28T11:23:05;8.98;;;3.90;;
54743;SDS011;40639;53.170;6.728;2023-02-28T11:25:38;7.35;;;3.63;;
54743;SDS011;40639;53.170;6.728;2023-02-28T11:28:08;9.90;;;4.32;;
54743;SDS011;40639;53.170;6.728;2023-02-28T11:30:59;6.63;;;3.40;;
54743;SDS011;40639;53.170;6.728;2023-02-28T11:33:27;5.60;;;3.30;;
54743;SDS011;40639;53.170;6.728;2023-02-28T11:35:56;7.07;;;4.10;;
54743;SDS011;40639;53.170;6.728;2023-02-28T11:38:23;6.72;;;3.97;;
54743;SDS011;40639;53.170;6.728;2023-02-28T11:48:29;9.40;;;4.40;;
54743;SDS011;40639;53.170;6.728;2023-02-28T12:06:51;7.00;;;3.90;;
54743;SDS011;40639;53.170;6.728;2023-02-28T12:12:21;10.98;;;3.85;;
54743;SDS011;40639;53.170;6.728;2023-02-28T12:20:09;8.23;;;4.47;;
54743;SDS011;40639;53.170;6.728;2023-02-28T12:22:49;11.85;;;4.60;;
54743;SDS011;40639;53.170;6.728;2023-02-28T12:28:10;8.60;;;5.03;;
54743;SDS011;40639;53.170;6.728;2023-02-28T12:30:39;8.13;;;4.93;;
54743;SDS011;40639;53.170;6.728;2023-02-28T12:33:09;7.38;;;4.00;;
54743;SDS011;40639;53.170;6.728;2023-02-28T12:38:31;7.60;;;4.85;;
54743;SDS011;40639;53.170;6.728;2023-02-28T12:41:00;11.52;;;6.93;;
54743;SDS011;40639;53.170;6.728;2023-02-28T12:43:33;10.45;;;4.65;;
54743;SDS011;40639;53.170;6.728;2023-02-28T12:46:10;8.73;;;5.05;;
54743;SDS011;40639;53.170;6.728;2023-02-28T12:48:45;8.13;;;4.20;;
54743;SDS011;40639;53.170;6.728;2023-02-28T12:51:12;8.95;;;5.20;;
54743;SDS011;40639;53.170;6.728;2023-02-28T12:56:33;8.63;;;4.33;;
54743;SDS011;40639;53.170;6.728;2023-02-28T12:59:03;5.90;;;3.85;;
54743;SDS011;40639;53.170;6.728;2023-02-28T13:09:40;7.68;;;4.32;;
54743;SDS011;40639;53.170;6.728;2023-02-28T13:12:15;7.00;;;4.10;;
54743;SDS011;40639;53.170;6.728;2023-02-28T13:14:42;6.87;;;3.93;;
54743;SDS011;40639;53.170;6.728;2023-02-28T13:19:39;19.45;;;5.88;;
54743;SDS011;40639;53.170;6.728;2023-02-28T13:22:15;7.95;;;4.10;;
54743;SDS011;40639;53.170;6.728;2023-02-28T13:29:38;6.60;;;3.95;;
54743;SDS011;40639;53.170;6.728;2023-02-28T13:34:46;8.60;;;4.07;;
54743;SDS011;40639;53.170;6.728;2023-02-28T13:39:47;8.90;;;3.90;;
54743;SDS011;40639;53.170;6.728;2023-02-28T13:47:35;7.43;;;4.05;;
54743;SDS011;40639;53.170;6.728;2023-02-28T13:55:57;8.60;;;3.95;;
54743;SDS011;40639;53.170;6.728;2023-02-28T14:06:18;8.02;;;3.88;;
54743;SDS011;40639;53.170;6.728;2023-02-28T14:16:58;11.02;;;5.00;;
54743;SDS011;40639;53.170;6.728;2023-02-28T14:19:28;6.82;;;4.45;;
54743;SDS011;40639;53.170;6.728;2023-02-28T14:24:47;8.57;;;4.88;;
54743;SDS011;40639;53.170;6.728;2023-02-28T14:27:24;6.63;;;4.47;;
54743;SDS011;40639;53.170;6.728;2023-02-28T14:37:42;7.80;;;4.72;;
54743;SDS011;40639;53.170;6.728;2023-02-28T14:40:16;7.35;;;4.68;;
54743;SDS011;40639;53.170;6.728;2023-02-28T14:42:46;8.60;;;4.72;;
54743;SDS011;40639;53.170;6.728;2023-02-28T14:45:17;7.97;;;5.35;;
54743;SDS011;40639;53.170;6.728;2023-02-28T14:47:43;7.40;;;4.60;;
54743;SDS011;40639;53.170;6.728;2023-02-28T14:50:23;6.43;;;4.60;;
54743;SDS011;40639;53.170;6.728;2023-02-28T14:52:53;8.52;;;5.30;;
54743;SDS011;40639;53.170;6.728;2023-02-28T14:55:26;11.90;;;4.07;;
54743;SDS011;40639;53.170;6.728;2023-02-28T14:57:54;8.02;;;5.00;;
54743;SDS011;40639;53.170;6.728;2023-02-28T15:00:28;6.50;;;5.20;;
54743;SDS011;40639;53.170;6.728;2023-02-28T15:02:55;9.10;;;4.97;;
54743;SDS011;40639;53.170;6.728;2023-02-28T15:05:34;10.00;;;4.72;;
54743;SDS011;40639;53.170;6.728;2023-02-28T15:08:05;7.78;;;4.13;;
54743;SDS011;40639;53.170;6.728;2023-02-28T15:10:32;5.97;;;4.20;;
54743;SDS011;40639;53.170;6.728;2023-02-28T15:13:04;8.43;;;4.80;;
54743;SDS011;40639;53.170;6.728;2023-02-28T15:15:42;7.78;;;3.90;;
54743;SDS011;40639;53.170;6.728;2023-02-28T15:18:27;6.20;;;3.72;;
54743;SDS011;40639;53.170;6.728;2023-02-28T15:20:55;6.70;;;4.10;;
54743;SDS011;40639;53.170;6.728;2023-02-28T15:23:22;8.48;;;4.70;;
54743;SDS011;40639;53.170;6.728;2023-02-28T15:25:48;9.15;;;4.50;;
54743;SDS011;40639;53.170;6.728;2023-02-28T15:28:17;7.15;;;4.45;;
54743;SDS011;40639;53.170;6.728;2023-02-28T15:30:55;7.90;;;4.90;;
54743;SDS011;40639;53.170;6.728;2023-02-28T15:33:23;6.75;;;4.60;;
54743;SDS011;40639;53.170;6.728;2023-02-28T15:35:50;6.97;;;4.07;;
54743;SDS011;40639;53.170;6.728;2023-02-28T15:38:26;6.57;;;4.47;;
54743;SDS011;40639;53.170;6.728;2023-02-28T15:43:23;7.50;;;4.43;;
54743;SDS011;40639;53.170;6.728;2023-02-28T15:45:51;7.68;;;4.95;;
54743;SDS011;40639;53.170;6.728;2023-02-28T15:48:19;8.68;;;4.55;;
54743;SDS011;40639;53.170;6.728;2023-02-28T15:50:47;9.40;;;4.97;;
54743;SDS011;40639;53.170;6.728;2023-02-28T15:53:18;6.78;;;4.50;;
54743;SDS011;40639;53.170;6.728;2023-02-28T15:55:45;7.68;;;4.90;;
54743;SDS011;40639;53.170;6.728;2023-02-28T15:58:17;7.68;;;4.85;;
54743;SDS011;40639;53.170;6.728;2023-02-28T16:00:44;6.10;;;4.72;;
54743;SDS011;40639;53.170;6.728;2023-02-28T16:03:26;7.10;;;4.50;;
54743;SDS011;40639;53.170;6.728;2023-02-28T16:08:37;8.48;;;5.03;;
54743;SDS011;40639;53.170;6.728;2023-02-28T16:11:04;7.28;;;4.80;;
54743;SDS011;40639;53.170;6.728;2023-02-28T16:13:30;8.20;;;5.13;;
54743;SDS011;40639;53.170;6.728;2023-02-28T16:15:56;6.28;;;4.70;;
54743;SDS011;40639;53.170;6.728;2023-02-28T16:18:24;8.05;;;4.97;;
54743;SDS011;40639;53.170;6.728;2023-02-28T16:20:50;8.40;;;4.85;;
54743;SDS011;40639;53.170;6.728;2023-02-28T16:23:16;8.95;;;4.68;;
54743;SDS011;40639;53.170;6.728;2023-02-28T16:25:43;8.98;;;5.53;;
54743;SDS011;40639;53.170;6.728;2023-02-28T16:28:21;6.95;;;4.57;;
54743;SDS011;40639;53.170;6.728;2023-02-28T16:30:50;7.82;;;5.05;;
54743;SDS011;40639;53.170;6.728;2023-02-28T16:33:17;7.43;;;5.50;;
54743;SDS011;40639;53.170;6.728;2023-02-28T16:35:43;9.15;;;5.45;;
54743;SDS011;40639;53.170;6.728;2023-02-28T16:38:09;9.00;;;4.65;;
54743;SDS011;40639;53.170;6.728;2023-02-28T16:40:35;9.00;;;5.72;;
54743;SDS011;40639;53.170;6.728;2023-02-28T16:43:04;7.93;;;5.28;;
54743;SDS011;40639;53.170;6.728;2023-02-28T16:45:31;10.43;;;5.63;;
54743;SDS011;40639;53.170;6.728;2023-02-28T16:47:57;9.68;;;6.07;;
54743;SDS011;40639;53.170;6.728;2023-02-28T16:50:25;10.45;;;6.00;;
54743;SDS011;40639;53.170;6.728;2023-02-28T16:52:51;13.43;;;6.35;;
54743;SDS011;40639;53.170;6.728;2023-02-28T16:55:19;9.27;;;6.22;;
54743;SDS011;40639;53.170;6.728;2023-02-28T16:57:47;10.45;;;6.45;;
54743;SDS011;40639;53.170;6.728;2023-02-28T17:00:14;8.02;;;5.50;;
54743;SDS011;40639;53.170;6.728;2023-02-28T17:02:40;8.85;;;6.28;;
54743;SDS011;40639;53.170;6.728;2023-02-28T17:05:08;11.23;;;6.75;;
54743;SDS011;40639;53.170;6.728;2023-02-28T17:07:34;9.85;;;6.70;;
54743;SDS011;40639;53.170;6.728;2023-02-28T17:10:00;10.65;;;7.22;;
54743;SDS011;40639;53.170;6.728;2023-02-28T17:12:39;11.85;;;7.10;;
54743;SDS011;40639;53.170;6.728;2023-02-28T17:15:06;10.55;;;6.82;;
54743;SDS011;40639;53.170;6.728;2023-02-28T17:17:33;11.50;;;7.63;;
54743;SDS011;40639;53.170;6.728;2023-02-28T17:19:59;13.60;;;7.45;;
54743;SDS011;40639;53.170;6.728;2023-02-28T17:22:25;10.93;;;8.05;;
54743;SDS011;40639;53.170;6.728;2023-02-28T17:24:52;11.43;;;7.38;;
54743;SDS011;40639;53.170;6.728;2023-02-28T17:27:22;10.32;;;7.40;;
54743;SDS011;40639;53.170;6.728;2023-02-28T17:29:49;10.82;;;7.10;;
54743;SDS011;40639;53.170;6.728;2023-02-28T17:32:15;12.27;;;7.25;;